Hawick, United Kingdom
Current Conditions -  °F | °C
As of 2:50 AM on Thursday 27 Nov 2014 (Local Time) from EGOM Reporting Station
Haze Haze  
Wind Chill: 35°   Ceiling: 2300
Heat Index: 39°   Visibility: 1.1mi
Dew Point: 39°   Wind: 6mph
Humidity: 100%   Direction: 70°ENE
Pressure: 29.68"   Gusts: NA
Location:  55.42°N, 2.79°W
Report Text: EGOM 270250Z AUTO 07005KT 1800 BR FEW001/// SCT017/// BKN023/// 04/04 Q1005 RERA
Loading
Personal Weather Stations






























Interactive Weather Map New forecast layout! Learn more

10-Day Weather Forecast

Advertisements
Track Severe Weather on mobile